Terminal Aerodrome Forecast
Issued by NWS Cleveland, OH

Home | Current Version | Previous Version | Text Only | Print | Product List | Glossary On
Versions: 1 2 3 4 5 6 7 8 9 10 11 12 13 14 15 16 17 18 19 20 21 22 23 24 25 26 27 28
000
FTUS41 KCLE 250500
TAFMFD
TAF
KMFD 250540Z 2506/2606 23005KT P6SM BKN035
     FM250700 21006KT P6SM SCT040 BKN100
      TEMPO 2508/2512 BKN018
     FM251500 22012G20KT P6SM BKN028 OVC040
     FM252000 26012G20KT P6SM SCT030
     FM252300 27010KT P6SM SKC=

USA.gov is the U.S. government's official web portal to all federal, state and local government web resources and services.